Time;durP1;ratioP1;P1;durP2;ratioP2;P2;SDS_P1;SDS_P2;PMS_P1;PMS_P2;Temp;Humidity;BMP_temperature;BMP_pressure;BME280_temperature;BME280_humidity;BME280_pressure;Samples;Min_cycle;Max_cycle;Signal;HPM_P1;HPM_P2
2022/12/29 00:01:00;;;;;;;3.00;1.10;;;10.30;99.90;;;;;;5022791;28;20514;-79
2022/12/29 00:03:27;;;;;;;1.50;0.90;;;10.40;99.90;;;;;;5020741;28;20481;-80
2022/12/29 00:05:58;;;;;;;2.00;1.03;;;10.40;99.90;;;;;;5022160;28;20543;-79
2022/12/29 00:08:39;;;;;;;2.27;1.00;;;10.50;99.90;;;;;;5021962;28;20964;-79
2022/12/29 00:11:06;;;;;;;1.47;0.80;;;10.50;99.90;;;;;;5021212;28;20448;-78
2022/12/29 00:16:17;;;;;;;1.73;1.10;;;10.50;99.90;;;;;;5023577;28;20468;-78
2022/12/29 00:18:44;;;;;;;2.17;1.27;;;10.40;99.90;;;;;;5022369;28;20484;-79
2022/12/29 00:35:08;;;;;;;2.00;1.30;;;10.30;99.90;;;;;;5004962;28;20509;-80
2022/12/29 00:45:54;;;;;;;1.40;0.90;;;10.20;99.90;;;;;;5022465;28;20447;-79
2022/12/29 00:51:05;;;;;;;2.07;1.10;;;10.20;99.90;;;;;;5022476;28;20448;-80
2022/12/29 00:53:31;;;;;;;1.97;0.87;;;10.30;99.90;;;;;;5022613;28;20472;-79
2022/12/29 00:56:00;;;;;;;4.90;1.10;;;10.30;99.90;;;;;;5021656;28;20512;-79
2022/12/29 00:58:28;;;;;;;2.00;1.10;;;10.30;99.90;;;;;;5019992;28;20482;-80
2022/12/29 01:01:03;;;;;;;1.60;1.00;;;10.30;99.90;;;;;;5021202;28;20855;-80
2022/12/29 01:03:29;;;;;;;2.40;1.03;;;10.40;99.90;;;;;;5015949;28;20561;-79
2022/12/29 01:05:56;;;;;;;1.60;0.90;;;10.40;99.90;;;;;;5016031;28;20451;-79
2022/12/29 01:08:23;;;;;;;2.30;1.03;;;10.40;99.90;;;;;;5015316;28;20460;-79
2022/12/29 01:11:02;;;;;;;1.50;0.73;;;10.40;99.90;;;;;;5020057;28;20456;-78
2022/12/29 01:13:31;;;;;;;1.80;1.07;;;10.40;99.90;;;;;;5034386;28;20538;-78
2022/12/29 01:15:58;;;;;;;1.60;0.90;;;10.40;99.90;;;;;;5033511;28;20450;-79
2022/12/29 01:18:28;;;;;;;2.03;1.10;;;10.40;99.90;;;;;;5033621;28;20465;-79
2022/12/29 01:21:02;;;;;;;1.70;0.80;;;10.40;99.90;;;;;;5027043;28;20457;-79
2022/12/29 01:23:31;;;;;;;1.80;0.83;;;10.40;99.90;;;;;;5015870;28;20508;-78
2022/12/29 01:26:08;;;;;;;1.47;0.80;;;10.40;99.90;;;;;;5017287;28;20461;-78
2022/12/29 01:28:35;;;;;;;1.60;0.83;;;10.40;99.90;;;;;;5016277;28;20922;-79
2022/12/29 01:31:02;;;;;;;2.17;0.80;;;10.50;99.90;;;;;;5016443;28;20455;-79
2022/12/29 01:33:29;;;;;;;1.50;0.70;;;10.50;99.90;;;;;;5017727;28;20486;-78
2022/12/29 01:35:56;;;;;;;1.83;0.70;;;10.50;99.90;;;;;;5016828;28;20459;-79
2022/12/29 01:38:24;;;;;;;3.70;0.80;;;10.50;99.90;;;;;;5017579;28;20458;-78
2022/12/29 01:40:53;;;;;;;1.40;0.70;;;10.60;99.90;;;;;;5017702;28;20455;-79
2022/12/29 01:43:21;;;;;;;1.47;0.90;;;10.60;99.90;;;;;;5018313;28;20467;-78
2022/12/29 01:45:51;;;;;;;2.43;1.10;;;10.60;99.90;;;;;;5017693;28;20539;-78
2022/12/29 01:48:19;;;;;;;2.33;0.80;;;10.70;99.90;;;;;;5018257;28;20439;-78
2022/12/29 01:50:51;;;;;;;1.60;0.90;;;10.70;99.90;;;;;;5017134;28;20448;-78
2022/12/29 01:53:21;;;;;;;1.70;0.80;;;10.70;99.90;;;;;;5018832;28;20490;-78
2022/12/29 01:55:52;;;;;;;2.60;0.80;;;10.70;99.90;;;;;;5019052;28;20455;-79
2022/12/29 01:58:23;;;;;;;2.03;0.83;;;10.70;99.90;;;;;;5017962;28;20472;-78
2022/12/29 02:00:50;;;;;;;1.77;0.73;;;10.80;99.90;;;;;;5017323;28;20481;-79
2022/12/29 02:03:19;;;;;;;1.63;0.70;;;10.80;99.90;;;;;;5020670;28;20484;-78
2022/12/29 02:05:51;;;;;;;2.23;0.60;;;10.80;99.90;;;;;;5022979;28;20459;-79
2022/12/29 02:08:18;;;;;;;1.40;0.60;;;10.90;99.90;;;;;;5021899;28;20458;-78
2022/12/29 02:10:45;;;;;;;1.93;0.60;;;10.90;99.90;;;;;;5023121;28;20521;-80
2022/12/29 02:13:15;;;;;;;1.80;0.80;;;11.00;99.90;;;;;;5024036;28;20482;-80
2022/12/29 02:15:57;;;;;;;9.30;1.77;;;11.00;99.90;;;;;;5023088;28;20464;-81
2022/12/29 02:18:33;;;;;;;1.40;0.70;;;11.00;99.90;;;;;;5017357;28;20487;-81
2022/12/29 02:21:37;;;;;;;1.60;0.70;;;11.00;99.90;;;;;;5013121;28;20481;-82
2022/12/29 02:24:27;;;;;;;4.27;0.80;;;11.00;99.90;;;;;;5004744;28;20464;-80
2022/12/29 02:27:11;;;;;;;2.80;0.60;;;10.90;99.90;;;;;;5029980;28;20417;-79
2022/12/29 02:29:57;;;;;;;1.30;0.60;;;10.90;99.90;;;;;;5037271;28;20453;-81
2022/12/29 02:32:32;;;;;;;1.40;0.70;;;11.00;99.90;;;;;;5019629;28;20501;-81
2022/12/29 02:35:06;;;;;;;1.40;0.73;;;11.00;99.90;;;;;;5022162;28;20454;-81
2022/12/29 02:37:42;;;;;;;1.50;0.70;;;11.10;99.90;;;;;;5023342;28;20459;-81
2022/12/29 02:40:18;;;;;;;2.53;0.73;;;11.10;99.90;;;;;;5021194;28;20486;-80
2022/12/29 02:42:51;;;;;;;2.33;0.80;;;11.20;99.90;;;;;;5016524;28;20928;-76
2022/12/29 02:45:27;;;;;;;1.70;0.80;;;11.20;99.90;;;;;;5019454;28;20456;-77
2022/12/29 02:48:04;;;;;;;4.03;1.27;;;11.30;99.90;;;;;;5016255;28;20542;-78
2022/12/29 02:50:37;;;;;;;1.90;0.73;;;11.20;99.90;;;;;;5014820;28;20835;-77
2022/12/29 02:53:07;;;;;;;1.50;0.70;;;11.30;99.90;;;;;;5013981;28;20489;-77
2022/12/29 02:55:33;;;;;;;1.40;0.73;;;11.40;99.90;;;;;;5013653;28;20449;-77
2022/12/29 02:58:17;;;;;;;3.73;0.70;;;11.40;99.90;;;;;;5016678;28;20453;-77
2022/12/29 03:00:56;;;;;;;1.77;0.83;;;11.30;99.90;;;;;;5012075;28;20214;-77
2022/12/29 03:03:39;;;;;;;1.40;0.70;;;11.30;99.90;;;;;;5011059;28;20472;-79
2022/12/29 03:06:22;;;;;;;1.50;0.77;;;11.30;99.90;;;;;;5021375;28;20456;-79
2022/12/29 03:08:55;;;;;;;1.90;0.80;;;11.40;99.90;;;;;;5019056;28;20446;-80
2022/12/29 03:17:10;;;;;;;2.07;0.90;;;11.60;99.90;;;;;;5018265;28;20441;-80
2022/12/29 03:19:46;;;;;;;1.70;0.80;;;11.50;99.90;;;;;;5018302;28;20489;-81
2022/12/29 03:22:31;;;;;;;1.50;0.80;;;11.40;99.90;;;;;;5018840;28;20507;-81
2022/12/29 03:25:01;;;;;;;2.10;0.77;;;11.30;99.90;;;;;;5018350;28;20511;-79
2022/12/29 03:27:31;;;;;;;1.43;0.73;;;11.30;99.90;;;;;;5017771;28;20455;-80
2022/12/29 03:30:01;;;;;;;1.80;0.90;;;11.30;99.90;;;;;;5017517;28;20457;-80
2022/12/29 03:32:33;;;;;;;2.37;1.00;;;11.30;99.90;;;;;;5018026;28;20473;-81
2022/12/29 03:35:02;;;;;;;2.90;0.77;;;11.40;99.90;;;;;;5018413;28;20448;-81
2022/12/29 03:37:36;;;;;;;1.90;0.80;;;11.40;99.90;;;;;;5017344;28;20972;-80
2022/12/29 03:40:04;;;;;;;1.90;0.80;;;11.40;99.90;;;;;;5018085;28;20480;-81
2022/12/29 03:42:34;;;;;;;1.57;0.80;;;11.50;99.90;;;;;;5017620;28;20483;-80
2022/12/29 03:45:01;;;;;;;1.73;0.80;;;11.60;99.90;;;;;;5018269;28;20441;-81
2022/12/29 03:47:28;;;;;;;2.53;1.00;;;11.60;99.90;;;;;;5018149;28;20544;-81
2022/12/29 03:49:55;;;;;;;2.70;0.93;;;11.60;99.90;;;;;;5018436;28;20454;-80
2022/12/29 03:52:23;;;;;;;2.43;1.13;;;11.50;99.90;;;;;;5004945;28;20482;-79
2022/12/29 03:54:50;;;;;;;3.40;0.80;;;11.40;99.90;;;;;;5012900;28;20453;-79
2022/12/29 03:57:16;;;;;;;1.50;0.70;;;11.20;99.90;;;;;;5015750;28;20544;-79
2022/12/29 03:59:43;;;;;;;1.93;0.80;;;11.10;99.90;;;;;;5015591;28;21096;-79
2022/12/29 04:02:10;;;;;;;1.40;0.70;;;10.90;99.90;;;;;;5016625;28;20528;-79
2022/12/29 04:04:37;;;;;;;3.30;1.03;;;10.90;99.90;;;;;;5017309;28;21075;-79
2022/12/29 04:07:04;;;;;;;1.60;0.80;;;10.80;99.90;;;;;;5016146;28;20477;-79
2022/12/29 04:09:32;;;;;;;1.63;1.00;;;10.80;99.90;;;;;;5016403;28;20453;-79
2022/12/29 04:11:58;;;;;;;1.93;0.90;;;10.80;99.90;;;;;;5018062;28;20477;-79
2022/12/29 04:14:25;;;;;;;2.90;0.90;;;10.70;99.90;;;;;;5017621;28;20980;-79
2022/12/29 04:16:52;;;;;;;2.37;0.90;;;10.70;99.90;;;;;;5017433;28;20453;-79
2022/12/29 04:19:19;;;;;;;1.80;0.90;;;10.70;99.90;;;;;;5016057;28;20535;-78
2022/12/29 04:21:45;;;;;;;1.83;0.80;;;10.70;99.90;;;;;;5017084;28;20469;-79
2022/12/29 04:24:12;;;;;;;3.73;0.70;;;10.70;99.90;;;;;;5016536;28;20847;-79
2022/12/29 04:26:41;;;;;;;1.60;0.80;;;10.70;99.90;;;;;;5016533;28;20465;-79
2022/12/29 04:29:08;;;;;;;1.40;0.77;;;10.60;99.90;;;;;;5015670;28;20464;-79
2022/12/29 04:31:34;;;;;;;2.53;0.80;;;10.60;99.90;;;;;;5017291;28;20535;-79
2022/12/29 04:34:01;;;;;;;1.60;0.80;;;10.60;99.90;;;;;;5017589;28;20455;-79
2022/12/29 04:36:28;;;;;;;2.30;0.70;;;10.60;99.90;;;;;;5015963;28;20464;-80
2022/12/29 04:38:55;;;;;;;1.40;0.70;;;10.70;99.90;;;;;;5015533;28;20449;-78
2022/12/29 04:41:22;;;;;;;2.70;0.90;;;10.70;99.90;;;;;;5015854;28;20502;-79
2022/12/29 04:43:50;;;;;;;1.40;0.73;;;10.70;99.90;;;;;;5018533;28;20476;-81
2022/12/29 04:46:17;;;;;;;1.77;0.70;;;10.90;99.90;;;;;;5000047;28;20915;-79
2022/12/29 04:48:44;;;;;;;2.13;1.33;;;10.90;99.90;;;;;;5012706;28;20459;-79
2022/12/29 04:51:10;;;;;;;1.77;0.90;;;11.10;99.90;;;;;;5000488;28;20446;-80
2022/12/29 04:53:37;;;;;;;1.57;0.67;;;11.20;99.90;;;;;;5043567;22;20499;-80
2022/12/29 04:56:04;;;;;;;1.53;0.80;;;11.20;99.90;;;;;;5034607;28;20463;-79
2022/12/29 04:58:31;;;;;;;3.17;0.80;;;11.30;99.90;;;;;;5035667;28;20958;-79
2022/12/29 05:00:59;;;;;;;1.80;0.80;;;11.40;99.90;;;;;;5039124;28;20491;-81
2022/12/29 05:03:26;;;;;;;2.63;0.73;;;11.40;99.90;;;;;;5025692;28;20978;-80
2022/12/29 05:05:54;;;;;;;1.40;0.60;;;11.50;99.90;;;;;;5019524;28;20460;-77
2022/12/29 05:08:21;;;;;;;1.40;0.60;;;11.60;99.90;;;;;;5018196;28;20453;-79
2022/12/29 05:10:50;;;;;;;1.40;0.63;;;11.70;99.90;;;;;;5018371;28;20453;-81
2022/12/29 05:13:17;;;;;;;2.07;0.80;;;11.70;99.90;;;;;;5018261;28;20475;-81
2022/12/29 05:15:50;;;;;;;1.90;0.70;;;11.80;99.90;;;;;;5012011;28;20465;-79
2022/12/29 05:18:18;;;;;;;2.00;0.80;;;11.80;99.90;;;;;;5015801;28;21003;-78
2022/12/29 05:20:45;;;;;;;3.50;1.00;;;11.80;99.90;;;;;;5018274;28;20484;-80
2022/12/29 05:23:12;;;;;;;1.73;0.70;;;11.90;99.90;;;;;;5018072;28;20473;-79
2022/12/29 05:25:38;;;;;;;2.37;0.70;;;11.80;99.90;;;;;;5018069;28;20460;-79
2022/12/29 05:28:05;;;;;;;2.97;0.73;;;11.80;99.90;;;;;;5017257;28;20441;-79
2022/12/29 05:30:32;;;;;;;1.40;0.60;;;11.90;99.90;;;;;;5017949;28;20458;-79
2022/12/29 05:32:59;;;;;;;1.40;0.67;;;11.80;99.90;;;;;;5018350;28;20883;-80
2022/12/29 05:35:27;;;;;;;1.80;0.73;;;11.80;99.90;;;;;;5018396;28;20461;-80
2022/12/29 05:37:54;;;;;;;1.50;0.70;;;11.90;99.90;;;;;;5019060;28;21034;-79
2022/12/29 05:40:21;;;;;;;1.70;0.80;;;11.90;99.90;;;;;;5018901;28;20486;-80
2022/12/29 05:42:47;;;;;;;2.13;1.03;;;11.90;99.90;;;;;;5017486;28;20480;-79
2022/12/29 05:45:14;;;;;;;2.57;0.80;;;12.00;99.90;;;;;;5018693;28;20449;-80
2022/12/29 05:47:41;;;;;;;2.50;0.77;;;11.90;99.90;;;;;;5018391;28;20469;-81
2022/12/29 05:50:08;;;;;;;1.50;0.70;;;12.00;99.90;;;;;;5018133;28;20444;-78
2022/12/29 05:52:39;;;;;;;1.63;0.77;;;11.90;99.90;;;;;;5017560;28;20504;-78
2022/12/29 05:55:07;;;;;;;3.33;1.27;;;11.90;99.90;;;;;;5017689;28;20451;-76
2022/12/29 05:57:34;;;;;;;1.60;0.90;;;11.80;99.90;;;;;;5016412;28;20456;-77
2022/12/29 06:00:01;;;;;;;2.27;1.00;;;11.60;99.90;;;;;;5014472;28;20466;-77
2022/12/29 06:02:27;;;;;;;3.93;1.10;;;11.40;99.90;;;;;;5014693;28;20468;-77
2022/12/29 06:04:54;;;;;;;1.80;0.90;;;11.20;99.90;;;;;;5018226;28;20483;-77
2022/12/29 06:07:21;;;;;;;2.10;0.73;;;11.10;99.90;;;;;;5019673;28;20535;-78
2022/12/29 06:09:49;;;;;;;3.10;1.10;;;11.00;99.90;;;;;;5017836;28;20461;-78
2022/12/29 06:12:16;;;;;;;2.40;0.90;;;10.90;99.90;;;;;;5019769;28;20914;-78
2022/12/29 06:14:46;;;;;;;4.23;0.70;;;10.80;99.90;;;;;;5021071;28;20457;-77
2022/12/29 06:17:12;;;;;;;1.47;0.73;;;10.70;99.90;;;;;;5020940;28;20455;-78
2022/12/29 06:19:39;;;;;;;1.80;1.00;;;10.70;99.90;;;;;;5019233;28;20496;-78
2022/12/29 06:22:07;;;;;;;1.90;0.77;;;10.60;99.90;;;;;;5020699;28;20505;-78
2022/12/29 06:24:34;;;;;;;2.27;0.73;;;10.50;99.90;;;;;;5021153;28;21047;-78
2022/12/29 06:27:02;;;;;;;1.87;0.83;;;10.60;99.90;;;;;;5021801;28;20456;-78
2022/12/29 06:29:29;;;;;;;2.93;0.90;;;10.60;99.90;;;;;;5021001;28;20461;-78
2022/12/29 06:31:57;;;;;;;1.90;1.00;;;10.70;99.90;;;;;;5020791;28;20452;-78
2022/12/29 06:34:24;;;;;;;2.20;0.90;;;10.60;99.90;;;;;;5021766;28;20453;-78
2022/12/29 06:36:52;;;;;;;3.20;1.33;;;10.60;99.90;;;;;;5021512;28;20837;-79
2022/12/29 06:39:19;;;;;;;1.73;1.00;;;10.70;99.90;;;;;;5020670;28;20521;-77
2022/12/29 06:41:45;;;;;;;3.07;1.00;;;10.60;99.90;;;;;;5028039;28;20489;-77
2022/12/29 06:44:14;;;;;;;2.73;1.00;;;10.50;99.90;;;;;;5021713;28;20575;-78
2022/12/29 06:46:40;;;;;;;1.40;0.73;;;10.50;99.90;;;;;;5020692;28;20455;-77
2022/12/29 06:49:07;;;;;;;2.43;0.90;;;10.50;99.90;;;;;;5019622;28;20459;-78
2022/12/29 06:51:34;;;;;;;2.03;0.70;;;10.70;99.90;;;;;;5020364;28;20479;-77
2022/12/29 06:54:01;;;;;;;3.10;0.80;;;10.80;99.90;;;;;;5020166;28;20494;-79
2022/12/29 06:56:28;;;;;;;3.00;0.80;;;11.00;99.90;;;;;;5019462;28;20467;-78
2022/12/29 06:58:54;;;;;;;1.80;0.80;;;11.10;99.90;;;;;;5018492;28;20464;-78
2022/12/29 07:01:22;;;;;;;4.50;0.80;;;11.20;99.90;;;;;;5019851;28;20502;-77
2022/12/29 07:03:49;;;;;;;2.30;1.10;;;11.20;99.90;;;;;;5020335;28;20567;-79
2022/12/29 07:06:16;;;;;;;1.60;0.70;;;11.20;99.90;;;;;;5019928;28;20449;-79
2022/12/29 07:08:43;;;;;;;1.70;0.80;;;11.30;99.90;;;;;;5018674;28;20555;-78
2022/12/29 07:11:12;;;;;;;3.00;0.80;;;11.40;99.90;;;;;;5019488;28;20452;-78
2022/12/29 07:13:40;;;;;;;4.20;0.93;;;11.40;99.90;;;;;;5019081;28;20540;-77
2022/12/29 07:16:08;;;;;;;4.10;0.97;;;11.40;99.90;;;;;;5019880;28;20465;-77
2022/12/29 07:18:36;;;;;;;2.63;0.97;;;11.40;99.90;;;;;;5017828;28;20452;-78
2022/12/29 07:21:03;;;;;;;1.93;0.83;;;11.40;99.90;;;;;;5018218;28;20484;-78
2022/12/29 07:23:30;;;;;;;3.30;1.03;;;11.30;99.90;;;;;;5018075;28;20473;-78
2022/12/29 07:26:01;;;;;;;3.70;1.13;;;11.40;99.90;;;;;;5017977;28;20543;-79
2022/12/29 07:28:28;;;;;;;3.60;1.03;;;11.40;99.90;;;;;;5016767;28;20461;-78
2022/12/29 07:30:55;;;;;;;1.53;0.73;;;11.40;99.90;;;;;;5018153;28;20453;-78
2022/12/29 07:33:22;;;;;;;2.43;1.00;;;11.40;99.90;;;;;;5016438;28;21034;-78
2022/12/29 07:35:50;;;;;;;3.10;0.90;;;11.40;99.90;;;;;;5016426;28;20527;-79
2022/12/29 07:38:17;;;;;;;2.00;0.80;;;11.40;99.90;;;;;;5015422;28;20463;-80
2022/12/29 07:40:44;;;;;;;3.60;0.80;;;11.40;99.90;;;;;;5017475;28;20488;-80
2022/12/29 07:43:14;;;;;;;3.50;1.03;;;11.40;99.90;;;;;;5018927;28;20468;-79
2022/12/29 07:45:41;;;;;;;1.50;0.80;;;11.40;99.90;;;;;;5017984;28;20533;-80
2022/12/29 07:48:08;;;;;;;2.57;1.00;;;11.50;99.90;;;;;;5014556;28;20452;-80
2022/12/29 07:50:35;;;;;;;3.97;0.87;;;11.50;99.90;;;;;;5011078;28;20517;-80
2022/12/29 07:53:04;;;;;;;3.10;1.00;;;11.40;99.90;;;;;;5011165;28;20470;-80
2022/12/29 07:55:32;;;;;;;3.07;0.70;;;11.40;99.90;;;;;;5009071;28;20453;-79
2022/12/29 07:57:59;;;;;;;1.83;0.80;;;11.40;99.90;;;;;;5010887;28;20500;-78
2022/12/29 08:00:26;;;;;;;4.50;1.00;;;11.50;99.90;;;;;;5011092;28;20549;-81
2022/12/29 08:02:53;;;;;;;4.00;0.90;;;11.50;99.90;;;;;;5008259;28;20503;-79
2022/12/29 08:05:19;;;;;;;3.30;0.80;;;11.50;99.90;;;;;;5007447;28;20453;-79
2022/12/29 08:07:49;;;;;;;2.93;0.80;;;11.50;99.90;;;;;;5007798;28;20476;-78
2022/12/29 08:10:17;;;;;;;4.40;0.90;;;11.50;99.90;;;;;;5007089;28;20542;-79
2022/12/29 08:12:45;;;;;;;3.00;1.00;;;11.50;99.90;;;;;;5006665;28;20568;-79
2022/12/29 08:15:13;;;;;;;5.53;1.10;;;11.50;99.90;;;;;;5010901;28;20457;-79
2022/12/29 08:17:40;;;;;;;1.60;0.80;;;11.40;99.90;;;;;;5011990;28;20845;-76
2022/12/29 08:20:08;;;;;;;3.60;1.10;;;11.40;99.90;;;;;;5006389;28;20464;-79
2022/12/29 08:22:38;;;;;;;4.67;1.00;;;11.40;99.90;;;;;;5009896;28;20498;-79
2022/12/29 08:25:05;;;;;;;2.30;0.90;;;11.50;99.90;;;;;;5008274;28;20446;-79
2022/12/29 08:27:33;;;;;;;2.13;0.90;;;11.50;99.90;;;;;;5006504;28;20471;-79
2022/12/29 08:30:01;;;;;;;5.37;1.50;;;11.50;99.90;;;;;;5003325;28;20542;-79
2022/12/29 08:32:28;;;;;;;4.20;1.13;;;11.50;99.90;;;;;;5007316;28;20857;-79
2022/12/29 08:34:55;;;;;;;2.53;0.90;;;11.50;99.90;;;;;;5011728;28;20469;-80
2022/12/29 08:37:22;;;;;;;2.47;1.00;;;11.50;99.90;;;;;;5010665;28;20448;-79
2022/12/29 08:39:49;;;;;;;3.30;1.10;;;11.50;99.90;;;;;;5010326;28;20454;-80
2022/12/29 08:42:16;;;;;;;2.90;1.30;;;11.60;99.90;;;;;;5009126;28;20489;-80
2022/12/29 08:44:44;;;;;;;3.13;1.20;;;11.60;99.90;;;;;;5012374;28;20464;-80
2022/12/29 08:47:11;;;;;;;4.10;1.20;;;11.60;99.90;;;;;;5013233;28;20460;-79
2022/12/29 08:49:39;;;;;;;6.57;1.17;;;11.70;99.90;;;;;;5014259;28;20534;-80
2022/12/29 08:52:08;;;;;;;3.00;1.23;;;11.70;99.90;;;;;;5027751;28;20442;-79
2022/12/29 08:54:35;;;;;;;2.83;1.07;;;11.60;99.90;;;;;;5018074;28;20456;-80
2022/12/29 08:57:02;;;;;;;3.07;0.90;;;11.60;99.90;;;;;;5023586;28;20524;-79
2022/12/29 08:59:29;;;;;;;3.63;1.20;;;11.60;99.90;;;;;;5020768;28;20457;-79
2022/12/29 09:02:02;;;;;;;4.00;0.90;;;11.60;99.90;;;;;;5024091;28;20548;-79
2022/12/29 09:04:32;;;;;;;5.07;1.03;;;11.60;99.90;;;;;;5010973;28;21031;-78
2022/12/29 09:06:59;;;;;;;6.77;1.33;;;11.60;99.90;;;;;;5024577;28;20452;-79
2022/12/29 09:09:26;;;;;;;3.60;0.90;;;11.50;99.90;;;;;;5018502;28;20836;-79
2022/12/29 09:11:53;;;;;;;3.30;1.33;;;11.40;99.90;;;;;;5020156;28;20452;-80
2022/12/29 09:14:21;;;;;;;5.20;1.43;;;11.30;99.90;;;;;;5020282;28;20463;-80
2022/12/29 09:19:33;;;;;;;2.17;0.80;;;11.20;99.90;;;;;;5018902;28;20439;-79
2022/12/29 09:22:00;;;;;;;6.83;1.10;;;11.20;99.90;;;;;;5002825;28;20489;-80
2022/12/29 09:24:27;;;;;;;5.60;1.40;;;11.20;99.90;;;;;;5018435;28;20453;-80
2022/12/29 09:26:54;;;;;;;4.07;1.17;;;11.30;99.90;;;;;;5019509;28;20542;-79
2022/12/29 09:29:21;;;;;;;6.50;1.30;;;11.30;99.90;;;;;;5017808;28;20525;-80
2022/12/29 09:31:47;;;;;;;4.33;1.10;;;11.30;99.90;;;;;;5020020;28;20456;-80
2022/12/29 09:34:15;;;;;;;6.30;1.63;;;11.40;99.90;;;;;;5023690;28;20508;-80
2022/12/29 09:36:43;;;;;;;4.43;1.30;;;11.50;99.90;;;;;;5020158;28;20459;-80
2022/12/29 09:39:10;;;;;;;5.93;1.40;;;11.60;99.90;;;;;;5017535;28;20527;-79
2022/12/29 09:41:42;;;;;;;2.83;0.90;;;11.70;99.90;;;;;;5018566;28;20548;-80
2022/12/29 09:44:18;;;;;;;5.30;1.50;;;11.80;99.90;;;;;;5017365;28;20480;-80
2022/12/29 09:46:50;;;;;;;5.40;1.20;;;11.80;99.90;;;;;;5018545;28;20453;-81
2022/12/29 09:49:24;;;;;;;2.90;1.23;;;11.90;99.90;;;;;;5013122;28;20549;-79
2022/12/29 09:51:55;;;;;;;3.67;1.30;;;11.90;99.90;;;;;;5010667;28;20447;-79
2022/12/29 09:54:33;;;;;;;5.53;1.20;;;12.00;99.90;;;;;;5008109;28;20530;-79
2022/12/29 09:57:00;;;;;;;5.73;1.23;;;11.90;99.90;;;;;;5008446;28;20441;-79
2022/12/29 09:59:39;;;;;;;3.10;1.00;;;12.00;99.90;;;;;;5006122;28;20494;-79
2022/12/29 10:02:15;;;;;;;4.80;1.10;;;11.90;99.90;;;;;;5009721;28;20485;-79
2022/12/29 10:04:44;;;;;;;5.00;1.40;;;12.10;99.90;;;;;;5009039;28;20444;-79
2022/12/29 10:07:18;;;;;;;3.87;1.10;;;12.20;99.90;;;;;;5007680;28;20446;-78
2022/12/29 10:09:51;;;;;;;5.07;1.30;;;12.10;99.90;;;;;;5018596;28;20923;-80
2022/12/29 10:12:29;;;;;;;2.30;0.97;;;11.90;99.90;;;;;;5018769;28;20483;-78
2022/12/29 10:15:05;;;;;;;9.40;1.70;;;11.80;99.90;;;;;;5018262;28;20956;-78
2022/12/29 10:17:41;;;;;;;6.73;1.30;;;11.80;99.90;;;;;;5017739;28;20460;-79
2022/12/29 10:20:29;;;;;;;5.20;1.30;;;11.70;99.90;;;;;;5017199;28;20466;-79
2022/12/29 10:23:21;;;;;;;3.40;1.30;;;11.90;99.90;;;;;;5018383;28;20592;-79
2022/12/29 10:25:48;;;;;;;2.97;1.13;;;11.90;99.90;;;;;;5017928;28;20456;-79
2022/12/29 10:28:21;;;;;;;2.70;1.37;;;11.90;99.90;;;;;;5012158;28;20458;-79
2022/12/29 10:30:49;;;;;;;5.37;1.37;;;11.90;99.90;;;;;;4998939;28;20459;-79
2022/12/29 10:33:21;;;;;;;5.67;1.17;;;12.00;99.90;;;;;;4998547;28;20528;-79
2022/12/29 10:35:48;;;;;;;5.13;2.07;;;12.10;99.90;;;;;;5016992;28;20464;-79
2022/12/29 10:38:25;;;;;;;2.70;1.17;;;12.30;99.90;;;;;;5017843;28;20454;-79
2022/12/29 10:40:58;;;;;;;4.93;1.27;;;12.40;99.90;;;;;;5018353;28;20448;-80
2022/12/29 10:43:27;;;;;;;8.80;1.50;;;12.50;99.90;;;;;;5018884;28;20493;-79
2022/12/29 10:45:57;;;;;;;5.90;1.40;;;12.60;99.90;;;;;;5018278;28;20458;-80
2022/12/29 10:48:27;;;;;;;5.30;1.40;;;12.50;99.90;;;;;;5018135;28;20461;-79
2022/12/29 10:50:58;;;;;;;5.83;1.53;;;12.30;99.90;;;;;;5017818;28;20457;-81
2022/12/29 10:53:33;;;;;;;3.00;1.10;;;12.30;99.90;;;;;;5043485;22;20473;-86
2022/12/29 10:56:02;;;;;;;4.97;1.27;;;12.20;99.90;;;;;;5022874;28;20495;-88
2022/12/29 10:58:31;;;;;;;4.27;1.30;;;12.20;99.90;;;;;;5029337;28;20473;-85
2022/12/29 11:00:58;;;;;;;5.87;1.37;;;12.20;99.90;;;;;;5031614;28;20472;-83
2022/12/29 11:03:42;;;;;;;3.47;1.10;;;12.10;99.90;;;;;;5032249;28;20484;-84
2022/12/29 11:06:11;;;;;;;3.80;1.10;;;12.00;99.90;;;;;;5032050;28;20453;-85
2022/12/29 11:08:49;;;;;;;4.70;1.20;;;12.00;99.90;;;;;;5024429;28;20449;-85
2022/12/29 11:11:25;;;;;;;4.00;1.23;;;11.90;99.90;;;;;;5030898;28;20457;-84
2022/12/29 11:13:57;;;;;;;5.20;2.03;;;12.00;99.90;;;;;;5031530;28;20508;-85
2022/12/29 11:16:33;;;;;;;5.53;1.30;;;12.00;99.90;;;;;;5025322;28;20530;-84
2022/12/29 11:19:01;;;;;;;6.40;1.40;;;12.10;99.90;;;;;;5010406;28;20461;-83
2022/12/29 11:21:33;;;;;;;3.17;1.00;;;12.00;99.90;;;;;;5012570;28;20513;-85
2022/12/29 11:24:03;;;;;;;3.40;1.07;;;11.90;99.90;;;;;;5013832;28;20545;-85
2022/12/29 11:26:30;;;;;;;4.17;1.30;;;11.90;99.90;;;;;;5012836;28;20566;-83
2022/12/29 11:29:22;;;;;;;7.90;1.40;;;11.80;99.90;;;;;;5012193;28;20533;-85
2022/12/29 11:31:50;;;;;;;9.10;1.50;;;11.90;99.90;;;;;;5013223;28;20513;-82
2022/12/29 11:34:19;;;;;;;2.97;1.30;;;11.80;99.90;;;;;;5029916;28;20474;-84
2022/12/29 11:36:47;;;;;;;4.37;1.17;;;11.80;99.90;;;;;;5032987;28;20459;-85
2022/12/29 11:39:30;;;;;;;10.60;1.60;;;11.80;99.90;;;;;;5031277;28;20516;-84
2022/12/29 11:41:58;;;;;;;4.70;1.30;;;11.80;99.90;;;;;;5031579;28;20522;-84
2022/12/29 11:44:27;;;;;;;5.57;1.37;;;11.80;99.90;;;;;;5030034;28;20498;-86
2022/12/29 11:46:54;;;;;;;7.37;1.80;;;11.90;99.90;;;;;;5029720;28;20532;-83
2022/12/29 11:49:25;;;;;;;8.33;2.80;;;11.90;99.90;;;;;;5009946;28;20552;-89
2022/12/29 11:51:56;;;;;;;5.17;1.10;;;11.90;99.90;;;;;;5016085;28;20445;-84
2022/12/29 11:54:32;;;;;;;3.20;0.93;;;12.00;99.90;;;;;;5009294;28;20520;-83
2022/12/29 11:57:10;;;;;;;8.53;1.40;;;12.10;99.90;;;;;;5008478;28;20476;-84
2022/12/29 11:59:41;;;;;;;4.80;1.17;;;12.00;99.90;;;;;;5010443;28;20466;-82
2022/12/29 12:02:31;;;;;;;6.33;1.20;;;12.20;99.90;;;;;;5020948;28;20503;-84
2022/12/29 12:05:05;;;;;;;5.40;1.57;;;12.20;99.90;;;;;;5011949;28;20466;-85
2022/12/29 12:07:40;;;;;;;6.40;1.23;;;12.20;99.90;;;;;;5009836;28;20458;-82
2022/12/29 12:10:22;;;;;;;8.77;1.27;;;12.20;99.90;;;;;;5023900;28;20466;-84
2022/12/29 12:12:57;;;;;;;6.00;1.20;;;12.20;99.90;;;;;;5024666;28;20462;-87
2022/12/29 12:15:29;;;;;;;4.57;1.10;;;12.30;99.90;;;;;;5009569;28;20487;-84
2022/12/29 12:18:06;;;;;;;8.10;1.67;;;12.20;99.90;;;;;;5022967;28;20452;-84
2022/12/29 12:20:46;;;;;;;5.63;1.27;;;12.20;99.90;;;;;;5011929;28;20500;-83
2022/12/29 12:23:37;;;;;;;7.03;1.73;;;12.30;99.90;;;;;;5011675;28;20476;-83
2022/12/29 12:26:13;;;;;;;5.63;1.70;;;12.50;99.90;;;;;;5025490;28;20476;-87
2022/12/29 12:28:47;;;;;;;7.70;1.20;;;12.60;99.90;;;;;;5009847;28;20877;-86
2022/12/29 12:31:22;;;;;;;6.20;1.17;;;12.70;99.90;;;;;;5009840;28;20519;-85
2022/12/29 12:33:54;;;;;;;3.70;1.20;;;12.60;99.90;;;;;;5018301;28;20530;-84
2022/12/29 12:36:55;;;;;;;8.00;1.77;;;12.40;99.90;;;;;;5030035;28;20454;-84
2022/12/29 12:39:27;;;;;;;6.87;1.27;;;12.20;99.90;;;;;;5027515;28;20477;-84
2022/12/29 12:42:07;;;;;;;3.33;0.90;;;12.00;99.90;;;;;;5030252;28;20445;-84
2022/12/29 12:44:47;;;;;;;4.43;1.13;;;12.00;99.90;;;;;;5022558;28;20465;-87
2022/12/29 12:47:43;;;;;;;5.70;1.93;;;12.00;99.90;;;;;;5016617;28;20509;-84
2022/12/29 12:50:37;;;;;;;3.23;1.30;;;11.90;99.90;;;;;;5017732;28;20468;-83
2022/12/29 12:53:36;;;;;;;3.77;1.30;;;11.80;99.90;;;;;;5013074;28;20507;-86
2022/12/29 12:56:23;;;;;;;7.23;2.00;;;11.80;99.90;;;;;;5018860;28;20530;-85
2022/12/29 12:58:56;;;;;;;3.90;1.70;;;11.80;99.90;;;;;;5015531;28;20452;-85
2022/12/29 13:01:39;;;;;;;6.63;1.60;;;11.90;99.90;;;;;;5019530;28;20505;-85
2022/12/29 13:04:29;;;;;;;6.03;1.27;;;11.80;99.90;;;;;;5013572;28;20512;-84
2022/12/29 13:07:05;;;;;;;5.10;2.10;;;11.80;99.90;;;;;;5010172;28;20454;-85
2022/12/29 13:09:49;;;;;;;4.77;1.30;;;11.70;99.90;;;;;;5008199;28;20475;-85
2022/12/29 13:12:28;;;;;;;7.33;1.53;;;11.70;99.90;;;;;;5002924;28;20529;-86
2022/12/29 13:15:05;;;;;;;8.30;1.67;;;11.60;99.90;;;;;;5003577;28;20528;-84
2022/12/29 13:17:38;;;;;;;5.27;1.67;;;11.60;99.90;;;;;;5013182;28;20459;-84
2022/12/29 13:20:19;;;;;;;7.67;1.40;;;11.70;99.90;;;;;;5005500;28;21137;-83
2022/12/29 13:22:55;;;;;;;7.13;1.23;;;11.80;99.90;;;;;;5009332;28;20500;-85
2022/12/29 13:25:31;;;;;;;6.03;1.40;;;11.70;99.90;;;;;;5027695;28;20483;-84
2022/12/29 13:28:03;;;;;;;9.07;1.60;;;11.70;99.90;;;;;;5028791;28;20455;-85
2022/12/29 13:30:35;;;;;;;5.60;1.70;;;11.70;99.90;;;;;;5026874;28;20563;-85
2022/12/29 13:33:13;;;;;;;4.17;2.27;;;11.80;99.90;;;;;;5013015;28;20490;-84
2022/12/29 13:35:54;;;;;;;9.63;1.47;;;11.80;99.90;;;;;;5009810;28;20491;-85
2022/12/29 13:38:27;;;;;;;6.90;1.87;;;11.80;99.90;;;;;;5005219;28;20454;-85
2022/12/29 13:40:57;;;;;;;6.80;1.60;;;11.80;99.90;;;;;;5009496;28;20467;-85
2022/12/29 13:43:25;;;;;;;6.73;2.40;;;11.80;99.90;;;;;;5010536;28;20508;-85